sensor_id;sensor_type;location;lat;lon;timestamp;P1;durP1;ratioP1;P2;durP2;ratioP2
47309;SDS011;33046;52.270;6.832;2022-12-18T00:01:27;57.70;;;27.93;;
47309;SDS011;33046;52.270;6.832;2022-12-18T00:03:36;53.77;;;28.87;;
47309;SDS011;33046;52.270;6.832;2022-12-18T00:05:47;52.80;;;28.30;;
47309;SDS011;33046;52.270;6.832;2022-12-18T00:07:55;56.67;;;27.77;;
47309;SDS011;33046;52.270;6.832;2022-12-18T00:10:01;46.90;;;24.23;;
47309;SDS011;33046;52.270;6.832;2022-12-18T00:12:09;51.37;;;25.53;;
47309;SDS011;33046;52.270;6.832;2022-12-18T00:14:16;55.20;;;27.00;;
47309;SDS011;33046;52.270;6.832;2022-12-18T00:16:23;53.20;;;26.53;;
47309;SDS011;33046;52.270;6.832;2022-12-18T00:18:31;45.80;;;24.63;;
47309;SDS011;33046;52.270;6.832;2022-12-18T00:20:39;45.27;;;24.53;;
47309;SDS011;33046;52.270;6.832;2022-12-18T00:22:47;46.90;;;24.37;;
47309;SDS011;33046;52.270;6.832;2022-12-18T00:24:54;44.97;;;24.50;;
47309;SDS011;33046;52.270;6.832;2022-12-18T00:27:01;46.47;;;24.20;;
47309;SDS011;33046;52.270;6.832;2022-12-18T00:29:10;45.03;;;24.20;;
47309;SDS011;33046;52.270;6.832;2022-12-18T00:31:19;43.87;;;24.17;;
47309;SDS011;33046;52.270;6.832;2022-12-18T00:33:27;44.37;;;25.13;;
47309;SDS011;33046;52.270;6.832;2022-12-18T00:35:34;43.80;;;25.43;;
47309;SDS011;33046;52.270;6.832;2022-12-18T00:37:41;43.90;;;22.73;;
47309;SDS011;33046;52.270;6.832;2022-12-18T00:39:49;43.37;;;24.90;;
47309;SDS011;33046;52.270;6.832;2022-12-18T00:41:56;43.40;;;24.07;;
47309;SDS011;33046;52.270;6.832;2022-12-18T00:44:04;41.83;;;22.20;;
47309;SDS011;33046;52.270;6.832;2022-12-18T00:46:12;44.67;;;24.10;;
47309;SDS011;33046;52.270;6.832;2022-12-18T00:48:18;48.43;;;26.33;;
47309;SDS011;33046;52.270;6.832;2022-12-18T00:50:25;48.57;;;25.17;;
47309;SDS011;33046;52.270;6.832;2022-12-18T00:52:32;41.63;;;25.43;;
47309;SDS011;33046;52.270;6.832;2022-12-18T00:54:39;46.23;;;23.10;;
47309;SDS011;33046;52.270;6.832;2022-12-18T00:56:47;43.07;;;23.73;;
47309;SDS011;33046;52.270;6.832;2022-12-18T00:58:55;42.80;;;23.80;;
47309;SDS011;33046;52.270;6.832;2022-12-18T01:01:03;50.03;;;23.97;;
47309;SDS011;33046;52.270;6.832;2022-12-18T01:03:12;46.27;;;22.83;;
47309;SDS011;33046;52.270;6.832;2022-12-18T01:05:22;39.67;;;23.90;;
47309;SDS011;33046;52.270;6.832;2022-12-18T01:07:30;42.33;;;22.93;;
47309;SDS011;33046;52.270;6.832;2022-12-18T01:09:37;46.27;;;25.50;;
47309;SDS011;33046;52.270;6.832;2022-12-18T01:11:44;44.93;;;22.53;;
47309;SDS011;33046;52.270;6.832;2022-12-18T01:13:52;43.07;;;22.83;;
47309;SDS011;33046;52.270;6.832;2022-12-18T01:16:01;42.47;;;22.83;;
47309;SDS011;33046;52.270;6.832;2022-12-18T01:18:07;43.83;;;23.00;;
47309;SDS011;33046;52.270;6.832;2022-12-18T01:20:14;39.97;;;22.87;;
47309;SDS011;33046;52.270;6.832;2022-12-18T01:22:21;45.53;;;25.07;;
47309;SDS011;33046;52.270;6.832;2022-12-18T01:24:28;41.87;;;24.50;;
47309;SDS011;33046;52.270;6.832;2022-12-18T01:26:36;42.37;;;21.87;;
47309;SDS011;33046;52.270;6.832;2022-12-18T01:28:43;39.53;;;21.20;;
47309;SDS011;33046;52.270;6.832;2022-12-18T01:30:51;40.47;;;22.27;;
47309;SDS011;33046;52.270;6.832;2022-12-18T01:32:59;40.07;;;23.37;;
47309;SDS011;33046;52.270;6.832;2022-12-18T01:35:07;45.43;;;23.37;;
47309;SDS011;33046;52.270;6.832;2022-12-18T01:37:14;38.50;;;22.60;;
47309;SDS011;33046;52.270;6.832;2022-12-18T01:39:20;44.00;;;22.57;;
47309;SDS011;33046;52.270;6.832;2022-12-18T01:41:28;39.03;;;22.07;;
47309;SDS011;33046;52.270;6.832;2022-12-18T01:43:43;45.03;;;22.67;;
47309;SDS011;33046;52.270;6.832;2022-12-18T01:45:52;42.17;;;22.50;;
47309;SDS011;33046;52.270;6.832;2022-12-18T01:47:59;40.83;;;20.67;;
47309;SDS011;33046;52.270;6.832;2022-12-18T01:50:10;42.60;;;23.00;;
47309;SDS011;33046;52.270;6.832;2022-12-18T01:52:20;38.07;;;22.47;;
47309;SDS011;33046;52.270;6.832;2022-12-18T01:54:28;40.07;;;21.83;;
47309;SDS011;33046;52.270;6.832;2022-12-18T01:56:35;37.27;;;20.47;;
47309;SDS011;33046;52.270;6.832;2022-12-18T01:58:45;42.77;;;22.80;;
47309;SDS011;33046;52.270;6.832;2022-12-18T02:00:59;36.40;;;21.27;;
47309;SDS011;33046;52.270;6.832;2022-12-18T02:03:05;41.13;;;22.53;;
47309;SDS011;33046;52.270;6.832;2022-12-18T02:05:13;35.87;;;20.43;;
47309;SDS011;33046;52.270;6.832;2022-12-18T02:07:27;34.83;;;19.57;;
47309;SDS011;33046;52.270;6.832;2022-12-18T02:09:43;35.47;;;17.50;;
47309;SDS011;33046;52.270;6.832;2022-12-18T02:11:56;40.00;;;21.47;;
47309;SDS011;33046;52.270;6.832;2022-12-18T02:14:15;38.40;;;19.73;;
47309;SDS011;33046;52.270;6.832;2022-12-18T02:16:32;40.80;;;21.57;;
47309;SDS011;33046;52.270;6.832;2022-12-18T02:18:45;39.00;;;21.17;;
47309;SDS011;33046;52.270;6.832;2022-12-18T02:20:58;38.17;;;20.93;;
47309;SDS011;33046;52.270;6.832;2022-12-18T02:23:16;38.77;;;20.00;;
47309;SDS011;33046;52.270;6.832;2022-12-18T02:26:00;42.47;;;22.83;;
47309;SDS011;33046;52.270;6.832;2022-12-18T02:28:13;35.83;;;18.37;;
47309;SDS011;33046;52.270;6.832;2022-12-18T02:30:23;35.80;;;20.83;;
47309;SDS011;33046;52.270;6.832;2022-12-18T02:32:31;36.73;;;20.90;;
47309;SDS011;33046;52.270;6.832;2022-12-18T02:34:40;34.53;;;19.20;;
47309;SDS011;33046;52.270;6.832;2022-12-18T02:36:53;35.53;;;19.83;;
47309;SDS011;33046;52.270;6.832;2022-12-18T02:39:02;38.50;;;19.13;;
47309;SDS011;33046;52.270;6.832;2022-12-18T02:41:11;34.73;;;19.80;;
47309;SDS011;33046;52.270;6.832;2022-12-18T02:43:21;34.27;;;18.33;;
47309;SDS011;33046;52.270;6.832;2022-12-18T02:45:27;40.37;;;20.83;;
47309;SDS011;33046;52.270;6.832;2022-12-18T02:47:35;34.33;;;19.13;;
47309;SDS011;33046;52.270;6.832;2022-12-18T02:49:49;36.33;;;18.73;;
47309;SDS011;33046;52.270;6.832;2022-12-18T02:52:02;30.03;;;18.07;;
47309;SDS011;33046;52.270;6.832;2022-12-18T02:54:18;34.90;;;17.27;;
47309;SDS011;33046;52.270;6.832;2022-12-18T02:56:35;31.37;;;17.87;;
47309;SDS011;33046;52.270;6.832;2022-12-18T02:58:46;30.73;;;16.93;;
47309;SDS011;33046;52.270;6.832;2022-12-18T03:01:18;36.83;;;18.63;;
47309;SDS011;33046;52.270;6.832;2022-12-18T03:03:31;32.20;;;17.30;;
47309;SDS011;33046;52.270;6.832;2022-12-18T03:05:45;30.37;;;14.60;;
47309;SDS011;33046;52.270;6.832;2022-12-18T03:07:56;34.03;;;16.97;;
47309;SDS011;33046;52.270;6.832;2022-12-18T03:10:08;28.50;;;15.87;;
47309;SDS011;33046;52.270;6.832;2022-12-18T03:12:22;32.20;;;16.83;;
47309;SDS011;33046;52.270;6.832;2022-12-18T03:14:37;35.13;;;18.90;;
47309;SDS011;33046;52.270;6.832;2022-12-18T03:16:48;29.20;;;16.73;;
47309;SDS011;33046;52.270;6.832;2022-12-18T03:18:58;27.60;;;16.70;;
47309;SDS011;33046;52.270;6.832;2022-12-18T03:21:11;28.05;;;15.43;;
47309;SDS011;33046;52.270;6.832;2022-12-18T03:23:21;28.23;;;15.80;;
47309;SDS011;33046;52.270;6.832;2022-12-18T03:25:31;32.40;;;16.23;;
47309;SDS011;33046;52.270;6.832;2022-12-18T03:27:47;29.83;;;16.97;;
47309;SDS011;33046;52.270;6.832;2022-12-18T03:30:00;29.93;;;17.17;;
47309;SDS011;33046;52.270;6.832;2022-12-18T03:32:10;30.67;;;17.23;;
47309;SDS011;33046;52.270;6.832;2022-12-18T03:34:21;27.80;;;16.00;;
47309;SDS011;33046;52.270;6.832;2022-12-18T03:36:33;29.53;;;16.10;;
47309;SDS011;33046;52.270;6.832;2022-12-18T03:38:40;27.00;;;15.93;;
47309;SDS011;33046;52.270;6.832;2022-12-18T03:40:51;31.13;;;16.80;;
47309;SDS011;33046;52.270;6.832;2022-12-18T03:43:07;30.43;;;15.53;;
47309;SDS011;33046;52.270;6.832;2022-12-18T03:45:22;27.97;;;16.00;;
47309;SDS011;33046;52.270;6.832;2022-12-18T03:47:33;26.47;;;14.37;;
47309;SDS011;33046;52.270;6.832;2022-12-18T03:49:47;27.23;;;16.53;;
47309;SDS011;33046;52.270;6.832;2022-12-18T03:52:03;30.87;;;17.17;;
47309;SDS011;33046;52.270;6.832;2022-12-18T03:54:12;29.67;;;15.33;;
47309;SDS011;33046;52.270;6.832;2022-12-18T03:56:29;28.93;;;18.30;;
47309;SDS011;33046;52.270;6.832;2022-12-18T03:58:41;25.00;;;15.27;;
47309;SDS011;33046;52.270;6.832;2022-12-18T04:00:56;27.17;;;15.60;;
47309;SDS011;33046;52.270;6.832;2022-12-18T04:03:05;26.57;;;14.63;;
47309;SDS011;33046;52.270;6.832;2022-12-18T04:05:19;25.77;;;16.47;;
47309;SDS011;33046;52.270;6.832;2022-12-18T04:07:27;28.33;;;16.70;;
47309;SDS011;33046;52.270;6.832;2022-12-18T04:09:36;26.63;;;15.87;;
47309;SDS011;33046;52.270;6.832;2022-12-18T04:11:45;32.73;;;16.77;;
47309;SDS011;33046;52.270;6.832;2022-12-18T04:13:56;26.77;;;14.73;;
47309;SDS011;33046;52.270;6.832;2022-12-18T04:16:04;27.93;;;16.97;;
47309;SDS011;33046;52.270;6.832;2022-12-18T04:18:12;33.07;;;19.20;;
47309;SDS011;33046;52.270;6.832;2022-12-18T04:20:21;25.00;;;14.60;;
47309;SDS011;33046;52.270;6.832;2022-12-18T04:22:28;26.57;;;15.20;;
47309;SDS011;33046;52.270;6.832;2022-12-18T04:24:38;29.97;;;16.20;;
47309;SDS011;33046;52.270;6.832;2022-12-18T04:26:55;25.50;;;14.97;;
47309;SDS011;33046;52.270;6.832;2022-12-18T04:29:06;28.53;;;16.47;;
47309;SDS011;33046;52.270;6.832;2022-12-18T04:31:13;28.73;;;15.70;;
47309;SDS011;33046;52.270;6.832;2022-12-18T04:33:20;24.07;;;14.33;;
47309;SDS011;33046;52.270;6.832;2022-12-18T04:35:27;25.03;;;15.07;;
47309;SDS011;33046;52.270;6.832;2022-12-18T04:37:35;26.30;;;14.40;;
47309;SDS011;33046;52.270;6.832;2022-12-18T04:39:42;26.07;;;15.03;;
47309;SDS011;33046;52.270;6.832;2022-12-18T04:41:55;27.63;;;16.43;;
47309;SDS011;33046;52.270;6.832;2022-12-18T04:44:06;24.70;;;14.80;;
47309;SDS011;33046;52.270;6.832;2022-12-18T04:46:13;28.63;;;16.17;;
47309;SDS011;33046;52.270;6.832;2022-12-18T04:48:20;25.43;;;15.77;;
47309;SDS011;33046;52.270;6.832;2022-12-18T04:50:27;29.70;;;14.77;;
47309;SDS011;33046;52.270;6.832;2022-12-18T04:52:35;26.20;;;14.83;;
47309;SDS011;33046;52.270;6.832;2022-12-18T04:54:41;30.20;;;17.20;;
47309;SDS011;33046;52.270;6.832;2022-12-18T04:56:48;26.33;;;15.03;;
47309;SDS011;33046;52.270;6.832;2022-12-18T04:58:55;28.47;;;16.43;;
47309;SDS011;33046;52.270;6.832;2022-12-18T05:01:03;27.40;;;14.57;;
47309;SDS011;33046;52.270;6.832;2022-12-18T05:03:10;23.23;;;15.43;;
47309;SDS011;33046;52.270;6.832;2022-12-18T05:05:17;25.07;;;14.03;;
47309;SDS011;33046;52.270;6.832;2022-12-18T05:07:24;26.43;;;14.40;;
47309;SDS011;33046;52.270;6.832;2022-12-18T05:09:31;24.47;;;16.10;;
47309;SDS011;33046;52.270;6.832;2022-12-18T05:11:37;24.97;;;14.90;;
47309;SDS011;33046;52.270;6.832;2022-12-18T05:13:44;23.50;;;13.40;;
47309;SDS011;33046;52.270;6.832;2022-12-18T05:15:51;24.03;;;13.53;;
47309;SDS011;33046;52.270;6.832;2022-12-18T05:18:00;24.17;;;13.27;;
47309;SDS011;33046;52.270;6.832;2022-12-18T05:20:08;23.47;;;14.30;;
47309;SDS011;33046;52.270;6.832;2022-12-18T05:22:15;24.73;;;14.43;;
47309;SDS011;33046;52.270;6.832;2022-12-18T05:24:22;23.60;;;15.10;;
47309;SDS011;33046;52.270;6.832;2022-12-18T05:26:29;24.80;;;13.90;;
47309;SDS011;33046;52.270;6.832;2022-12-18T05:28:36;24.67;;;13.67;;
47309;SDS011;33046;52.270;6.832;2022-12-18T05:30:44;21.83;;;13.57;;
47309;SDS011;33046;52.270;6.832;2022-12-18T05:32:53;23.67;;;13.73;;
47309;SDS011;33046;52.270;6.832;2022-12-18T05:35:01;23.90;;;15.23;;
47309;SDS011;33046;52.270;6.832;2022-12-18T05:37:09;22.53;;;15.87;;
47309;SDS011;33046;52.270;6.832;2022-12-18T05:39:16;22.60;;;13.53;;
47309;SDS011;33046;52.270;6.832;2022-12-18T05:41:23;25.17;;;14.30;;
47309;SDS011;33046;52.270;6.832;2022-12-18T05:43:30;22.10;;;13.27;;
47309;SDS011;33046;52.270;6.832;2022-12-18T05:45:38;23.57;;;14.30;;
47309;SDS011;33046;52.270;6.832;2022-12-18T05:47:45;20.63;;;12.20;;
47309;SDS011;33046;52.270;6.832;2022-12-18T05:49:51;22.77;;;13.10;;
47309;SDS011;33046;52.270;6.832;2022-12-18T05:52:00;22.77;;;13.33;;
47309;SDS011;33046;52.270;6.832;2022-12-18T05:54:07;21.23;;;12.50;;
47309;SDS011;33046;52.270;6.832;2022-12-18T05:56:15;19.70;;;12.37;;
47309;SDS011;33046;52.270;6.832;2022-12-18T05:58:23;18.30;;;12.10;;
47309;SDS011;33046;52.270;6.832;2022-12-18T06:00:30;19.77;;;11.07;;
47309;SDS011;33046;52.270;6.832;2022-12-18T06:02:38;20.53;;;11.43;;
47309;SDS011;33046;52.270;6.832;2022-12-18T06:04:45;20.03;;;10.47;;
47309;SDS011;33046;52.270;6.832;2022-12-18T06:06:51;16.93;;;10.83;;
47309;SDS011;33046;52.270;6.832;2022-12-18T06:08:59;18.37;;;12.17;;
47309;SDS011;33046;52.270;6.832;2022-12-18T06:11:06;17.03;;;11.27;;
47309;SDS011;33046;52.270;6.832;2022-12-18T06:13:13;16.80;;;10.53;;
47309;SDS011;33046;52.270;6.832;2022-12-18T06:15:20;20.47;;;12.60;;
47309;SDS011;33046;52.270;6.832;2022-12-18T06:17:27;19.87;;;13.10;;
47309;SDS011;33046;52.270;6.832;2022-12-18T06:19:34;15.60;;;10.93;;
47309;SDS011;33046;52.270;6.832;2022-12-18T06:21:41;17.23;;;10.80;;
47309;SDS011;33046;52.270;6.832;2022-12-18T06:23:48;20.03;;;12.23;;
47309;SDS011;33046;52.270;6.832;2022-12-18T06:25:56;20.90;;;12.03;;
47309;SDS011;33046;52.270;6.832;2022-12-18T06:28:03;16.50;;;11.60;;
47309;SDS011;33046;52.270;6.832;2022-12-18T06:30:10;20.33;;;12.00;;
47309;SDS011;33046;52.270;6.832;2022-12-18T06:32:17;17.63;;;10.43;;
47309;SDS011;33046;52.270;6.832;2022-12-18T06:34:24;17.87;;;10.93;;
47309;SDS011;33046;52.270;6.832;2022-12-18T06:36:31;18.43;;;11.23;;
47309;SDS011;33046;52.270;6.832;2022-12-18T06:38:39;18.10;;;10.27;;
47309;SDS011;33046;52.270;6.832;2022-12-18T06:40:47;22.03;;;13.80;;
47309;SDS011;33046;52.270;6.832;2022-12-18T06:42:55;16.90;;;10.93;;
47309;SDS011;33046;52.270;6.832;2022-12-18T06:45:02;19.67;;;10.77;;
47309;SDS011;33046;52.270;6.832;2022-12-18T06:47:09;17.83;;;13.27;;
47309;SDS011;33046;52.270;6.832;2022-12-18T06:49:16;21.23;;;12.77;;
47309;SDS011;33046;52.270;6.832;2022-12-18T06:51:23;17.87;;;11.53;;
47309;SDS011;33046;52.270;6.832;2022-12-18T06:53:31;17.53;;;10.93;;
47309;SDS011;33046;52.270;6.832;2022-12-18T06:55:38;18.90;;;11.03;;
47309;SDS011;33046;52.270;6.832;2022-12-18T06:57:45;16.93;;;10.30;;
47309;SDS011;33046;52.270;6.832;2022-12-18T06:59:53;18.57;;;11.63;;
47309;SDS011;33046;52.270;6.832;2022-12-18T07:02:00;17.20;;;11.93;;
47309;SDS011;33046;52.270;6.832;2022-12-18T07:04:07;17.30;;;10.60;;
47309;SDS011;33046;52.270;6.832;2022-12-18T07:06:14;19.87;;;12.30;;
47309;SDS011;33046;52.270;6.832;2022-12-18T07:08:23;16.20;;;10.00;;
47309;SDS011;33046;52.270;6.832;2022-12-18T07:10:29;16.63;;;11.10;;
47309;SDS011;33046;52.270;6.832;2022-12-18T07:12:36;17.43;;;11.40;;
47309;SDS011;33046;52.270;6.832;2022-12-18T07:14:43;21.50;;;11.87;;
47309;SDS011;33046;52.270;6.832;2022-12-18T07:16:51;16.83;;;10.17;;
47309;SDS011;33046;52.270;6.832;2022-12-18T07:18:58;15.13;;;10.53;;
47309;SDS011;33046;52.270;6.832;2022-12-18T07:21:05;16.73;;;10.97;;
47309;SDS011;33046;52.270;6.832;2022-12-18T07:23:13;15.30;;;10.20;;
47309;SDS011;33046;52.270;6.832;2022-12-18T07:25:19;16.43;;;10.37;;
47309;SDS011;33046;52.270;6.832;2022-12-18T07:27:26;16.47;;;11.03;;
47309;SDS011;33046;52.270;6.832;2022-12-18T07:29:33;16.23;;;10.53;;
47309;SDS011;33046;52.270;6.832;2022-12-18T07:31:40;17.37;;;10.83;;
47309;SDS011;33046;52.270;6.832;2022-12-18T07:33:49;16.37;;;9.97;;
47309;SDS011;33046;52.270;6.832;2022-12-18T07:35:56;14.13;;;10.53;;
47309;SDS011;33046;52.270;6.832;2022-12-18T07:38:05;17.90;;;11.20;;
47309;SDS011;33046;52.270;6.832;2022-12-18T07:40:12;14.80;;;9.83;;
47309;SDS011;33046;52.270;6.832;2022-12-18T07:42:18;16.57;;;10.20;;
47309;SDS011;33046;52.270;6.832;2022-12-18T07:44:25;18.97;;;11.80;;
47309;SDS011;33046;52.270;6.832;2022-12-18T07:46:32;16.87;;;10.83;;
47309;SDS011;33046;52.270;6.832;2022-12-18T07:48:39;14.90;;;11.03;;
47309;SDS011;33046;52.270;6.832;2022-12-18T07:50:47;15.57;;;11.00;;
47309;SDS011;33046;52.270;6.832;2022-12-18T07:52:54;17.27;;;10.47;;
47309;SDS011;33046;52.270;6.832;2022-12-18T07:55:00;15.77;;;10.57;;
47309;SDS011;33046;52.270;6.832;2022-12-18T07:57:07;16.87;;;10.57;;
47309;SDS011;33046;52.270;6.832;2022-12-18T07:59:20;16.23;;;11.15;;
47309;SDS011;33046;52.270;6.832;2022-12-18T08:01:27;17.33;;;10.93;;
47309;SDS011;33046;52.270;6.832;2022-12-18T08:03:34;14.37;;;9.23;;
47309;SDS011;33046;52.270;6.832;2022-12-18T08:05:42;17.53;;;10.07;;
47309;SDS011;33046;52.270;6.832;2022-12-18T08:07:50;14.33;;;10.07;;
47309;SDS011;33046;52.270;6.832;2022-12-18T08:09:57;15.60;;;9.93;;
47309;SDS011;33046;52.270;6.832;2022-12-18T08:12:04;14.53;;;9.47;;
47309;SDS011;33046;52.270;6.832;2022-12-18T08:14:11;17.27;;;11.33;;
47309;SDS011;33046;52.270;6.832;2022-12-18T08:16:18;15.23;;;10.40;;
47309;SDS011;33046;52.270;6.832;2022-12-18T08:18:26;14.87;;;10.27;;
47309;SDS011;33046;52.270;6.832;2022-12-18T08:20:33;15.43;;;9.77;;
47309;SDS011;33046;52.270;6.832;2022-12-18T08:22:40;15.37;;;10.90;;
47309;SDS011;33046;52.270;6.832;2022-12-18T08:24:48;13.97;;;9.90;;
47309;SDS011;33046;52.270;6.832;2022-12-18T08:26:55;16.43;;;10.50;;
47309;SDS011;33046;52.270;6.832;2022-12-18T08:29:18;12.82;;;8.05;;
47309;SDS011;33046;52.270;6.832;2022-12-18T08:31:27;16.77;;;9.43;;
47309;SDS011;33046;52.270;6.832;2022-12-18T08:33:35;15.47;;;8.87;;
47309;SDS011;33046;52.270;6.832;2022-12-18T08:35:43;12.73;;;8.90;;
47309;SDS011;33046;52.270;6.832;2022-12-18T08:37:51;13.43;;;8.90;;
47309;SDS011;33046;52.270;6.832;2022-12-18T08:39:59;13.03;;;8.90;;
47309;SDS011;33046;52.270;6.832;2022-12-18T08:42:06;14.43;;;9.10;;
47309;SDS011;33046;52.270;6.832;2022-12-18T08:44:15;11.77;;;7.13;;
47309;SDS011;33046;52.270;6.832;2022-12-18T08:46:22;15.07;;;8.50;;
47309;SDS011;33046;52.270;6.832;2022-12-18T08:48:30;12.73;;;6.97;;
47309;SDS011;33046;52.270;6.832;2022-12-18T08:50:37;11.20;;;7.77;;
47309;SDS011;33046;52.270;6.832;2022-12-18T08:52:44;9.60;;;6.53;;
47309;SDS011;33046;52.270;6.832;2022-12-18T08:54:50;13.07;;;8.10;;
47309;SDS011;33046;52.270;6.832;2022-12-18T08:56:59;9.03;;;6.30;;
47309;SDS011;33046;52.270;6.832;2022-12-18T08:59:05;11.83;;;7.20;;
47309;SDS011;33046;52.270;6.832;2022-12-18T09:01:12;9.67;;;6.60;;
47309;SDS011;33046;52.270;6.832;2022-12-18T09:03:19;11.43;;;6.27;;
47309;SDS011;33046;52.270;6.832;2022-12-18T09:05:26;11.97;;;6.47;;
47309;SDS011;33046;52.270;6.832;2022-12-18T09:07:33;8.97;;;6.17;;
47309;SDS011;33046;52.270;6.832;2022-12-18T09:09:40;9.23;;;6.43;;
47309;SDS011;33046;52.270;6.832;2022-12-18T09:11:47;9.63;;;6.90;;
47309;SDS011;33046;52.270;6.832;2022-12-18T09:13:55;11.07;;;5.93;;
47309;SDS011;33046;52.270;6.832;2022-12-18T09:16:02;8.50;;;6.07;;
47309;SDS011;33046;52.270;6.832;2022-12-18T09:18:09;10.27;;;6.77;;
47309;SDS011;33046;52.270;6.832;2022-12-18T09:20:17;8.93;;;6.10;;
47309;SDS011;33046;52.270;6.832;2022-12-18T09:22:24;9.37;;;5.67;;
47309;SDS011;33046;52.270;6.832;2022-12-18T09:24:31;11.50;;;6.60;;
47309;SDS011;33046;52.270;6.832;2022-12-18T09:26:37;9.03;;;6.53;;
47309;SDS011;33046;52.270;6.832;2022-12-18T09:28:44;8.17;;;5.73;;
47309;SDS011;33046;52.270;6.832;2022-12-18T09:30:53;9.67;;;6.63;;
47309;SDS011;33046;52.270;6.832;2022-12-18T09:33:00;10.13;;;5.87;;
47309;SDS011;33046;52.270;6.832;2022-12-18T09:35:07;8.57;;;6.13;;
47309;SDS011;33046;52.270;6.832;2022-12-18T09:37:13;9.00;;;6.10;;
47309;SDS011;33046;52.270;6.832;2022-12-18T09:39:20;9.20;;;6.23;;
47309;SDS011;33046;52.270;6.832;2022-12-18T09:41:36;9.00;;;6.00;;
47309;SDS011;33046;52.270;6.832;2022-12-18T09:43:48;9.67;;;5.77;;
47309;SDS011;33046;52.270;6.832;2022-12-18T09:45:59;11.33;;;6.27;;
47309;SDS011;33046;52.270;6.832;2022-12-18T09:48:09;8.57;;;5.63;;
47309;SDS011;33046;52.270;6.832;2022-12-18T09:50:22;10.07;;;6.33;;
47309;SDS011;33046;52.270;6.832;2022-12-18T09:52:33;8.45;;;5.60;;
47309;SDS011;33046;52.270;6.832;2022-12-18T09:54:43;7.23;;;5.20;;
47309;SDS011;33046;52.270;6.832;2022-12-18T09:56:52;7.33;;;5.33;;
47309;SDS011;33046;52.270;6.832;2022-12-18T09:59:00;8.43;;;6.07;;
47309;SDS011;33046;52.270;6.832;2022-12-18T10:01:10;7.87;;;5.70;;
47309;SDS011;33046;52.270;6.832;2022-12-18T10:03:23;11.73;;;6.10;;
47309;SDS011;33046;52.270;6.832;2022-12-18T10:05:33;11.27;;;5.77;;
47309;SDS011;33046;52.270;6.832;2022-12-18T10:07:50;8.63;;;5.80;;
47309;SDS011;33046;52.270;6.832;2022-12-18T10:10:04;8.90;;;5.40;;
47309;SDS011;33046;52.270;6.832;2022-12-18T10:12:19;10.00;;;6.07;;
47309;SDS011;33046;52.270;6.832;2022-12-18T10:14:34;12.27;;;6.10;;
47309;SDS011;33046;52.270;6.832;2022-12-18T10:16:51;9.33;;;5.83;;
47309;SDS011;33046;52.270;6.832;2022-12-18T10:19:16;12.93;;;6.13;;
47309;SDS011;33046;52.270;6.832;2022-12-18T10:21:31;9.83;;;6.20;;
47309;SDS011;33046;52.270;6.832;2022-12-18T10:23:45;10.07;;;6.72;;
47309;SDS011;33046;52.270;6.832;2022-12-18T10:25:59;7.40;;;5.93;;
47309;SDS011;33046;52.270;6.832;2022-12-18T10:28:10;7.80;;;5.70;;
47309;SDS011;33046;52.270;6.832;2022-12-18T10:30:20;7.53;;;5.70;;
47309;SDS011;33046;52.270;6.832;2022-12-18T10:32:29;12.23;;;7.10;;
47309;SDS011;33046;52.270;6.832;2022-12-18T10:34:37;7.03;;;5.37;;
47309;SDS011;33046;52.270;6.832;2022-12-18T10:36:43;10.23;;;6.13;;
47309;SDS011;33046;52.270;6.832;2022-12-18T10:38:50;8.37;;;6.20;;
47309;SDS011;33046;52.270;6.832;2022-12-18T10:40:58;8.87;;;5.97;;
47309;SDS011;33046;52.270;6.832;2022-12-18T10:43:10;9.83;;;7.30;;
47309;SDS011;33046;52.270;6.832;2022-12-18T10:45:18;9.07;;;5.63;;
47309;SDS011;33046;52.270;6.832;2022-12-18T10:47:25;8.10;;;6.13;;
47309;SDS011;33046;52.270;6.832;2022-12-18T10:49:33;9.97;;;5.20;;
47309;SDS011;33046;52.270;6.832;2022-12-18T10:51:41;8.30;;;6.50;;
47309;SDS011;33046;52.270;6.832;2022-12-18T10:53:51;8.10;;;5.80;;
47309;SDS011;33046;52.270;6.832;2022-12-18T10:56:04;9.20;;;6.60;;
47309;SDS011;33046;52.270;6.832;2022-12-18T10:58:13;10.75;;;8.63;;
47309;SDS011;33046;52.270;6.832;2022-12-18T11:00:30;11.53;;;6.60;;
47309;SDS011;33046;52.270;6.832;2022-12-18T11:02:37;10.30;;;6.27;;
47309;SDS011;33046;52.270;6.832;2022-12-18T11:04:50;8.10;;;5.63;;
47309;SDS011;33046;52.270;6.832;2022-12-18T11:06:58;8.73;;;6.50;;
47309;SDS011;33046;52.270;6.832;2022-12-18T11:09:17;8.85;;;5.25;;
47309;SDS011;33046;52.270;6.832;2022-12-18T11:11:26;6.90;;;5.77;;
47309;SDS011;33046;52.270;6.832;2022-12-18T11:13:34;8.68;;;5.97;;
47309;SDS011;33046;52.270;6.832;2022-12-18T11:15:41;6.72;;;4.82;;
47309;SDS011;33046;52.270;6.832;2022-12-18T11:17:48;6.88;;;4.97;;
47309;SDS011;33046;52.270;6.832;2022-12-18T11:19:58;8.57;;;5.78;;
47309;SDS011;33046;52.270;6.832;2022-12-18T11:22:17;8.13;;;5.80;;
47309;SDS011;33046;52.270;6.832;2022-12-18T11:24:27;8.60;;;5.15;;
47309;SDS011;33046;52.270;6.832;2022-12-18T11:26:36;12.18;;;7.05;;
47309;SDS011;33046;52.270;6.832;2022-12-18T11:28:43;9.20;;;5.85;;
47309;SDS011;33046;52.270;6.832;2022-12-18T11:30:55;10.73;;;5.90;;
47309;SDS011;33046;52.270;6.832;2022-12-18T11:33:19;7.57;;;5.32;;
47309;SDS011;33046;52.270;6.832;2022-12-18T11:35:33;7.10;;;5.18;;
47309;SDS011;33046;52.270;6.832;2022-12-18T11:37:46;8.45;;;4.72;;
47309;SDS011;33046;52.270;6.832;2022-12-18T11:39:57;7.20;;;5.35;;
47309;SDS011;33046;52.270;6.832;2022-12-18T11:42:09;8.05;;;5.95;;
47309;SDS011;33046;52.270;6.832;2022-12-18T11:44:22;8.02;;;4.70;;
47309;SDS011;33046;52.270;6.832;2022-12-18T11:46:34;8.05;;;6.20;;
47309;SDS011;33046;52.270;6.832;2022-12-18T11:48:44;7.95;;;6.28;;
47309;SDS011;33046;52.270;6.832;2022-12-18T11:50:57;8.93;;;5.57;;
47309;SDS011;33046;52.270;6.832;2022-12-18T11:53:09;8.85;;;6.03;;
47309;SDS011;33046;52.270;6.832;2022-12-18T11:55:19;8.45;;;5.72;;
47309;SDS011;33046;52.270;6.832;2022-12-18T11:57:35;9.50;;;5.50;;
47309;SDS011;33046;52.270;6.832;2022-12-18T11:59:50;9.88;;;6.22;;
47309;SDS011;33046;52.270;6.832;2022-12-18T12:02:10;6.93;;;5.38;;
47309;SDS011;33046;52.270;6.832;2022-12-18T12:04:30;7.50;;;5.32;;
47309;SDS011;33046;52.270;6.832;2022-12-18T12:06:58;9.43;;;6.10;;
47309;SDS011;33046;52.270;6.832;2022-12-18T12:09:15;7.00;;;5.55;;
47309;SDS011;33046;52.270;6.832;2022-12-18T12:11:32;7.22;;;4.80;;
47309;SDS011;33046;52.270;6.832;2022-12-18T12:14:01;8.05;;;5.78;;
47309;SDS011;33046;52.270;6.832;2022-12-18T12:16:21;8.27;;;4.57;;
47309;SDS011;33046;52.270;6.832;2022-12-18T12:18:33;7.22;;;5.07;;
47309;SDS011;33046;52.270;6.832;2022-12-18T12:20:49;8.75;;;5.45;;
47309;SDS011;33046;52.270;6.832;2022-12-18T12:23:09;8.30;;;4.53;;
47309;SDS011;33046;52.270;6.832;2022-12-18T12:25:25;6.95;;;4.38;;
47309;SDS011;33046;52.270;6.832;2022-12-18T12:27:40;7.38;;;5.03;;
47309;SDS011;33046;52.270;6.832;2022-12-18T12:29:56;8.18;;;5.30;;
47309;SDS011;33046;52.270;6.832;2022-12-18T12:32:12;8.10;;;4.80;;
47309;SDS011;33046;52.270;6.832;2022-12-18T12:34:30;7.65;;;4.70;;
47309;SDS011;33046;52.270;6.832;2022-12-18T12:36:50;7.55;;;5.78;;
47309;SDS011;33046;52.270;6.832;2022-12-18T12:39:10;10.75;;;6.10;;
47309;SDS011;33046;52.270;6.832;2022-12-18T12:41:22;7.28;;;5.13;;
47309;SDS011;33046;52.270;6.832;2022-12-18T12:43:33;9.25;;;5.28;;
47309;SDS011;33046;52.270;6.832;2022-12-18T12:45:48;8.95;;;5.43;;